createdAt,value
2023-06-18T00:00:25.138Z,28.16
2023-06-18T00:01:25.014Z,28.11
2023-06-18T00:02:25.032Z,28.16
2023-06-18T00:03:25.011Z,28.17
2023-06-18T00:04:24.932Z,28.13
2023-06-18T00:05:24.975Z,28.13
2023-06-18T00:06:24.940Z,28.16
2023-06-18T00:07:24.957Z,28.13
2023-06-18T00:08:24.936Z,28.14
2023-06-18T00:09:24.947Z,28.14
2023-06-18T00:10:24.913Z,28.14
2023-06-18T00:11:24.931Z,28.14
2023-06-18T00:12:24.912Z,28.13
2023-06-18T00:13:24.986Z,28.14
2023-06-18T00:14:24.927Z,28.11
2023-06-18T00:15:24.919Z,28.13
2023-06-18T00:16:24.930Z,28.11
2023-06-18T00:17:24.891Z,28.14
2023-06-18T00:18:24.880Z,28.13
2023-06-18T00:19:24.880Z,28.13
2023-06-18T00:20:24.874Z,28.14
2023-06-18T00:21:24.832Z,28.10
2023-06-18T00:22:24.851Z,28.13
2023-06-18T00:23:24.862Z,28.14
2023-06-18T00:24:24.905Z,28.11
2023-06-18T00:25:24.841Z,28.13
2023-06-18T00:26:24.808Z,28.11
2023-06-18T00:27:24.824Z,28.11
2023-06-18T00:28:24.830Z,28.10
2023-06-18T00:29:24.815Z,28.11
2023-06-18T00:30:24.987Z,28.09
2023-06-18T00:31:24.794Z,28.11
2023-06-18T00:32:24.806Z,28.10
2023-06-18T00:33:24.809Z,28.11
2023-06-18T00:34:24.800Z,28.11
2023-06-18T00:35:24.765Z,28.09
2023-06-18T00:36:24.791Z,28.10
2023-06-18T00:37:24.759Z,28.10
2023-06-18T00:38:24.778Z,28.11
2023-06-18T00:39:24.783Z,28.10
2023-06-18T00:40:24.797Z,28.10
2023-06-18T00:41:24.754Z,28.11
2023-06-18T00:42:24.726Z,28.10
2023-06-18T00:43:24.744Z,28.09
2023-06-18T00:44:24.734Z,28.10
2023-06-18T00:45:24.747Z,28.09
2023-06-18T00:46:24.743Z,28.09
2023-06-18T00:47:24.831Z,28.09
2023-06-18T00:48:24.708Z,28.09
2023-06-18T00:49:24.718Z,28.10
2023-06-18T00:50:24.962Z,28.10
2023-06-18T00:51:24.690Z,28.09
2023-06-18T00:52:24.724Z,28.09
2023-06-18T00:53:24.740Z,28.09
2023-06-18T00:54:24.724Z,28.10
2023-06-18T00:55:24.749Z,28.09
2023-06-18T00:56:24.790Z,28.10
2023-06-18T00:57:24.768Z,28.09
2023-06-18T00:58:24.859Z,28.07
2023-06-18T00:59:24.858Z,28.09
2023-06-18T01:00:25.102Z,28.09
2023-06-18T01:01:24.890Z,28.09
2023-06-18T01:02:25.006Z,28.07
2023-06-18T01:03:24.967Z,28.10
2023-06-18T01:04:25.021Z,28.07
2023-06-18T01:05:24.995Z,28.07
2023-06-18T01:06:25.013Z,28.09
2023-06-18T01:07:29.211Z,28.07
2023-06-18T01:08:26.054Z,28.07
2023-06-18T01:09:25.018Z,28.07
2023-06-18T01:10:25.175Z,28.07
2023-06-18T01:11:24.975Z,28.07
2023-06-18T01:12:24.993Z,28.07
2023-06-18T01:13:24.983Z,28.07
2023-06-18T01:14:24.991Z,28.07
2023-06-18T01:15:24.953Z,28.04
2023-06-18T01:16:24.978Z,28.09
2023-06-18T01:17:25.013Z,28.04
2023-06-18T01:18:24.929Z,28.04
2023-06-18T01:19:24.932Z,28.06
2023-06-18T01:20:25.101Z,28.06
2023-06-18T01:21:24.899Z,28.07
2023-06-18T01:22:24.895Z,28.06
2023-06-18T01:23:24.875Z,28.04
2023-06-18T01:24:24.911Z,28.06
2023-06-18T01:25:24.896Z,28.06
2023-06-18T01:26:24.887Z,28.04
2023-06-18T01:27:24.862Z,28.06
2023-06-18T01:28:24.863Z,28.04
2023-06-18T01:29:24.854Z,28.06
2023-06-18T01:30:25.261Z,28.04
2023-06-18T01:31:25.857Z,28.07
2023-06-18T01:32:24.910Z,28.06
2023-06-18T01:33:24.830Z,28.04
2023-06-18T01:34:24.838Z,28.06
2023-06-18T01:35:24.859Z,28.04
2023-06-18T01:36:24.840Z,28.04
2023-06-18T01:37:24.850Z,28.06
2023-06-18T01:38:24.809Z,28.04
2023-06-18T01:39:24.816Z,28.03
2023-06-18T01:40:24.821Z,28.03
2023-06-18T01:41:24.788Z,28.07
2023-06-18T01:42:24.791Z,28.03
2023-06-18T01:43:24.809Z,28.03
2023-06-18T01:44:24.783Z,28.04
2023-06-18T01:45:24.796Z,28.02
2023-06-18T01:46:24.915Z,28.03
2023-06-18T01:47:24.834Z,28.03
2023-06-18T01:48:24.746Z,28.02
2023-06-18T01:49:24.782Z,28.03
2023-06-18T01:50:24.756Z,28.04
2023-06-18T01:51:24.731Z,28.03
2023-06-18T01:52:24.764Z,28.03
2023-06-18T01:53:24.728Z,28.03
2023-06-18T01:54:24.726Z,28.03
2023-06-18T01:55:24.701Z,28.06
2023-06-18T01:56:24.776Z,28.03
2023-06-18T01:57:24.716Z,28.03
2023-06-18T01:58:24.698Z,28.03
2023-06-18T01:59:24.708Z,28.03
2023-06-18T02:00:24.737Z,28.02
2023-06-18T02:01:24.687Z,28.00
2023-06-18T02:02:24.706Z,28.03
2023-06-18T02:03:24.840Z,28.03
2023-06-18T02:04:24.663Z,28.02
2023-06-18T02:05:24.647Z,28.00
2023-06-18T02:06:24.650Z,28.03
2023-06-18T02:07:24.644Z,28.03
2023-06-18T02:08:24.650Z,27.99
2023-06-18T02:09:24.627Z,27.99
2023-06-18T02:10:24.839Z,27.99
2023-06-18T02:11:24.648Z,28.02
2023-06-18T02:12:24.605Z,28.02
2023-06-18T02:13:24.636Z,28.02
2023-06-18T02:14:24.615Z,28.02
2023-06-18T02:15:24.589Z,28.02
2023-06-18T02:16:24.675Z,27.97
2023-06-18T02:17:24.612Z,28.00
2023-06-18T02:18:24.595Z,28.00
2023-06-18T02:19:25.516Z,27.99
2023-06-18T02:20:25.641Z,27.99
2023-06-18T02:21:25.571Z,27.99
2023-06-18T02:22:24.562Z,27.99
2023-06-18T02:23:24.559Z,28.00
2023-06-18T02:24:24.601Z,28.00
2023-06-18T02:25:24.543Z,27.99
2023-06-18T02:26:24.555Z,27.99
2023-06-18T02:27:24.515Z,28.00
2023-06-18T02:28:24.503Z,27.99
2023-06-18T02:29:24.539Z,28.00
2023-06-18T02:30:24.719Z,28.00
2023-06-18T02:31:24.510Z,27.97
2023-06-18T02:32:24.574Z,28.00
2023-06-18T02:33:24.511Z,27.99
2023-06-18T02:34:24.494Z,27.97
2023-06-18T02:35:24.502Z,27.97
2023-06-18T02:36:24.470Z,27.99
2023-06-18T02:37:24.470Z,27.97
2023-06-18T02:38:24.495Z,27.99
2023-06-18T02:39:24.496Z,28.00
2023-06-18T02:40:24.874Z,27.99
2023-06-18T02:41:24.464Z,27.97
2023-06-18T02:42:24.461Z,28.00
2023-06-18T02:43:24.460Z,27.97
2023-06-18T02:44:24.436Z,27.97
2023-06-18T02:45:24.474Z,27.96
2023-06-18T02:46:24.482Z,27.99
2023-06-18T02:47:24.448Z,27.97
2023-06-18T02:48:24.413Z,27.97
2023-06-18T02:49:24.414Z,27.96
2023-06-18T02:50:24.558Z,27.99
2023-06-18T02:51:24.411Z,27.97
2023-06-18T02:52:24.422Z,27.96
2023-06-18T02:53:24.438Z,27.96
2023-06-18T02:54:24.367Z,27.96
2023-06-18T02:55:24.356Z,27.96
2023-06-18T02:56:24.395Z,27.96
2023-06-18T02:57:24.350Z,27.97
2023-06-18T02:58:24.340Z,27.96
2023-06-18T02:59:24.375Z,27.99
2023-06-18T03:00:24.502Z,27.96
2023-06-18T03:01:24.430Z,27.97
2023-06-18T03:02:24.378Z,27.96
2023-06-18T03:03:24.351Z,27.96
2023-06-18T03:04:24.358Z,27.95
2023-06-18T03:05:24.460Z,27.97
2023-06-18T03:06:24.340Z,27.97
2023-06-18T03:07:24.397Z,27.96
2023-06-18T03:08:24.432Z,27.96
2023-06-18T03:09:24.405Z,27.96
2023-06-18T03:10:24.708Z,27.95
2023-06-18T03:11:24.488Z,27.95
2023-06-18T03:12:24.502Z,27.96
2023-06-18T03:13:24.535Z,27.95
2023-06-18T03:14:24.587Z,27.93
2023-06-18T03:15:24.581Z,27.96
2023-06-18T03:16:24.697Z,27.96
2023-06-18T03:17:24.779Z,27.95
2023-06-18T03:18:24.672Z,27.96
2023-06-18T03:19:24.719Z,27.96
2023-06-18T03:20:25.010Z,27.95
2023-06-18T03:21:24.760Z,27.95
2023-06-18T03:22:24.783Z,27.95
2023-06-18T03:23:24.816Z,27.93
2023-06-18T03:24:24.918Z,27.95
2023-06-18T03:25:24.901Z,27.96
2023-06-18T03:26:24.943Z,27.93
2023-06-18T03:27:24.956Z,27.93
2023-06-18T03:28:24.938Z,27.93
2023-06-18T03:29:24.995Z,27.93
2023-06-18T03:30:25.224Z,27.95
2023-06-18T03:31:25.039Z,27.93
2023-06-18T03:32:25.104Z,27.96
2023-06-18T03:33:25.101Z,27.93
2023-06-18T03:34:25.119Z,27.95
2023-06-18T03:35:25.173Z,27.92
2023-06-18T03:36:25.184Z,27.92
2023-06-18T03:37:25.237Z,27.93
2023-06-18T03:38:25.268Z,27.92
2023-06-18T03:39:25.277Z,27.92
2023-06-18T03:40:25.302Z,27.95
2023-06-18T03:41:25.311Z,27.93
2023-06-18T03:42:25.350Z,27.95
2023-06-18T03:43:25.376Z,27.93
2023-06-18T03:44:25.405Z,27.95
2023-06-18T03:45:25.412Z,27.93
2023-06-18T03:46:25.480Z,27.95
2023-06-18T03:47:25.475Z,27.95
2023-06-18T03:48:25.487Z,27.93
2023-06-18T03:49:25.555Z,27.95
2023-06-18T03:50:25.631Z,27.95
2023-06-18T03:51:25.556Z,27.95
2023-06-18T03:52:25.609Z,27.91
2023-06-18T03:53:25.637Z,27.93
2023-06-18T03:54:25.682Z,27.93
2023-06-18T03:55:25.697Z,27.93
2023-06-18T03:56:25.727Z,27.92
2023-06-18T03:57:25.741Z,27.93
2023-06-18T03:58:25.807Z,27.93
2023-06-18T03:59:25.816Z,27.96
2023-06-18T04:00:25.872Z,27.95
2023-06-18T04:01:25.911Z,27.93
2023-06-18T04:02:26.025Z,27.93
2023-06-18T04:03:25.999Z,27.92
2023-06-18T04:04:25.926Z,27.93
2023-06-18T04:05:26.002Z,27.93
2023-06-18T04:06:26.008Z,27.95
2023-06-18T04:07:26.072Z,27.91
2023-06-18T04:08:26.080Z,27.93
2023-06-18T04:09:26.099Z,27.92
2023-06-18T04:10:26.147Z,27.92
2023-06-18T04:11:26.178Z,27.95
2023-06-18T04:12:26.201Z,27.92
2023-06-18T04:13:26.229Z,27.93
2023-06-18T04:14:26.257Z,27.92
2023-06-18T04:15:26.280Z,27.95
2023-06-18T04:16:26.316Z,27.95
2023-06-18T04:17:26.402Z,27.93
2023-06-18T04:18:26.361Z,27.95
2023-06-18T04:19:26.414Z,27.92
2023-06-18T04:20:26.712Z,27.93
2023-06-18T04:21:26.460Z,27.93
2023-06-18T04:22:26.468Z,27.93
2023-06-18T04:23:26.497Z,27.93
2023-06-18T04:24:26.562Z,27.96
2023-06-18T04:25:26.534Z,27.93
2023-06-18T04:26:26.594Z,27.92
2023-06-18T04:27:26.605Z,27.93
2023-06-18T04:28:26.690Z,27.93
2023-06-18T04:29:26.688Z,27.93
2023-06-18T04:30:26.700Z,27.92
2023-06-18T04:31:26.716Z,27.92
2023-06-18T04:32:26.794Z,27.95
2023-06-18T04:33:26.788Z,27.93
2023-06-18T04:34:26.805Z,27.92
2023-06-18T04:35:26.829Z,27.95
2023-06-18T04:36:26.852Z,27.93
2023-06-18T04:37:26.879Z,27.95
2023-06-18T04:38:26.883Z,27.95
2023-06-18T04:39:26.917Z,27.95
2023-06-18T04:40:26.972Z,27.93
2023-06-18T04:41:27.039Z,27.92
2023-06-18T04:42:27.024Z,27.95
2023-06-18T04:43:27.029Z,27.92
2023-06-18T04:44:27.049Z,27.93
2023-06-18T04:45:27.056Z,27.95
2023-06-18T04:46:27.144Z,27.95
2023-06-18T04:47:27.179Z,27.95
2023-06-18T04:48:27.147Z,27.93
2023-06-18T04:49:27.167Z,27.93
2023-06-18T04:50:27.226Z,27.93
2023-06-18T04:51:27.258Z,27.96
2023-06-18T04:52:27.315Z,27.97
2023-06-18T04:53:27.332Z,27.95
2023-06-18T04:54:27.341Z,27.95
2023-06-18T04:55:27.389Z,27.95
2023-06-18T04:56:27.406Z,27.95
2023-06-18T04:57:27.395Z,27.97
2023-06-18T04:58:27.445Z,27.97
2023-06-18T04:59:27.448Z,27.95
2023-06-18T05:00:27.476Z,27.96
2023-06-18T05:01:27.521Z,27.95
2023-06-18T05:02:27.621Z,27.95
2023-06-18T05:03:27.644Z,27.95
2023-06-18T05:04:27.629Z,27.96
2023-06-18T05:05:27.597Z,27.96
2023-06-18T05:06:27.625Z,27.96
2023-06-18T05:07:27.647Z,27.96
2023-06-18T05:08:27.678Z,27.97
2023-06-18T05:09:27.671Z,27.97
2023-06-18T05:10:27.708Z,27.99
2023-06-18T05:11:27.732Z,27.99
2023-06-18T05:12:27.770Z,27.99
2023-06-18T05:13:27.827Z,27.99
2023-06-18T05:14:27.809Z,27.96
2023-06-18T05:15:27.865Z,28.00
2023-06-18T05:16:27.916Z,28.00
2023-06-18T05:17:27.932Z,27.97
2023-06-18T05:18:27.926Z,27.97
2023-06-18T05:19:27.970Z,27.99
2023-06-18T05:20:27.965Z,27.97
2023-06-18T05:21:28.024Z,27.97
2023-06-18T05:22:28.001Z,27.99
2023-06-18T05:23:28.062Z,28.00
2023-06-18T05:24:28.138Z,28.00
2023-06-18T05:25:28.148Z,27.99
2023-06-18T05:26:28.143Z,28.00
2023-06-18T05:27:28.168Z,27.99
2023-06-18T05:28:28.193Z,28.00
2023-06-18T05:29:28.218Z,28.02
2023-06-18T05:30:28.269Z,28.02
2023-06-18T05:31:28.256Z,28.00
2023-06-18T05:32:28.314Z,28.00
2023-06-18T05:33:28.303Z,28.02
2023-06-18T05:34:28.330Z,28.00
2023-06-18T05:35:28.350Z,28.02
2023-06-18T05:36:28.367Z,28.03
2023-06-18T05:37:28.400Z,28.02
2023-06-18T05:38:28.402Z,28.00
2023-06-18T05:39:28.424Z,28.03
2023-06-18T05:40:28.593Z,28.00
2023-06-18T05:41:28.486Z,28.03
2023-06-18T05:42:28.513Z,28.03
2023-06-18T05:43:28.538Z,28.02
2023-06-18T05:44:28.569Z,28.03
2023-06-18T05:45:28.572Z,28.02
2023-06-18T05:46:28.659Z,28.03
2023-06-18T05:47:28.721Z,28.03
2023-06-18T05:48:28.700Z,28.04
2023-06-18T05:49:28.699Z,28.03
2023-06-18T05:50:29.066Z,28.04
2023-06-18T05:51:28.723Z,28.03
2023-06-18T05:52:28.791Z,28.06
2023-06-18T05:53:28.789Z,28.03
2023-06-18T05:54:28.808Z,28.04
2023-06-18T05:55:28.822Z,28.07
2023-06-18T05:56:28.848Z,28.03
2023-06-18T05:57:28.893Z,28.04
2023-06-18T05:58:28.898Z,28.04
2023-06-18T05:59:28.960Z,28.04
2023-06-18T06:00:29.004Z,28.03
2023-06-18T06:01:28.990Z,28.06
2023-06-18T06:02:29.041Z,28.06
2023-06-18T06:03:29.077Z,28.06
2023-06-18T06:04:29.071Z,28.06
2023-06-18T06:05:29.033Z,28.06
2023-06-18T06:06:29.080Z,28.06
2023-06-18T06:07:29.101Z,28.07
2023-06-18T06:08:29.105Z,28.06
2023-06-18T06:09:29.172Z,28.07
2023-06-18T06:10:29.166Z,28.06
2023-06-18T06:11:29.214Z,28.07
2023-06-18T06:12:29.198Z,28.07
2023-06-18T06:13:29.216Z,28.07
2023-06-18T06:14:29.251Z,28.10
2023-06-18T06:15:29.282Z,28.07
2023-06-18T06:16:29.329Z,28.09
2023-06-18T06:17:29.340Z,28.10
2023-06-18T06:18:29.330Z,28.06
2023-06-18T06:19:29.336Z,28.09
2023-06-18T06:20:29.326Z,28.10
2023-06-18T06:21:29.364Z,28.10
2023-06-18T06:22:29.395Z,28.10
2023-06-18T06:23:29.418Z,28.07
2023-06-18T06:24:29.510Z,28.09
2023-06-18T06:25:29.452Z,28.09
2023-06-18T06:26:29.477Z,28.10
2023-06-18T06:27:29.500Z,28.09
2023-06-18T06:28:29.494Z,28.11
2023-06-18T06:29:29.534Z,28.10
2023-06-18T06:31:33.346Z,28.10
2023-06-18T06:32:33.365Z,28.06
2023-06-18T06:33:33.376Z,28.07
2023-06-18T06:34:33.345Z,28.13
2023-06-18T06:35:33.325Z,28.11
2023-06-18T06:36:33.318Z,28.10
2023-06-18T06:37:33.334Z,28.11
2023-06-18T06:38:33.309Z,28.10
2023-06-18T06:39:33.326Z,28.13
2023-06-18T06:40:33.322Z,28.10
2023-06-18T06:41:33.272Z,28.10
2023-06-18T06:42:33.297Z,28.10
2023-06-18T06:43:33.305Z,28.11
2023-06-18T06:44:33.275Z,28.09
2023-06-18T06:45:33.326Z,28.10
2023-06-18T06:46:33.289Z,28.09
2023-06-18T06:47:33.288Z,28.11
2023-06-18T06:48:33.272Z,28.11
2023-06-18T06:49:33.254Z,28.11
2023-06-18T06:50:33.240Z,28.11
2023-06-18T06:51:33.233Z,28.11
2023-06-18T06:52:33.236Z,28.13
2023-06-18T06:53:33.236Z,28.14
2023-06-18T06:54:33.228Z,28.11
2023-06-18T06:55:33.243Z,28.13
2023-06-18T06:56:33.196Z,28.13
2023-06-18T06:57:33.239Z,28.14
2023-06-18T06:58:33.202Z,28.13
2023-06-18T06:59:33.196Z,28.16
2023-06-18T07:00:33.202Z,28.11
2023-06-18T07:01:33.322Z,28.13
2023-06-18T07:02:33.245Z,28.13
2023-06-18T07:03:33.228Z,28.13
2023-06-18T07:04:33.361Z,28.14
2023-06-18T07:05:33.163Z,28.14
2023-06-18T07:06:33.160Z,28.14
2023-06-18T07:07:33.114Z,28.16
2023-06-18T07:08:33.129Z,28.14
2023-06-18T07:09:33.114Z,28.14
2023-06-18T07:10:33.115Z,28.14
2023-06-18T07:11:33.147Z,28.13
2023-06-18T07:12:33.137Z,28.16
2023-06-18T07:13:33.114Z,28.16
2023-06-18T07:14:33.122Z,28.13
2023-06-18T07:15:33.095Z,28.14
2023-06-18T07:16:33.133Z,28.17
2023-06-18T07:17:33.134Z,28.16
2023-06-18T07:18:33.077Z,28.16
2023-06-18T07:19:33.080Z,28.17
2023-06-18T07:20:33.045Z,28.17
2023-06-18T07:21:33.058Z,28.19
2023-06-18T07:22:33.033Z,28.16
2023-06-18T07:23:33.048Z,28.16
2023-06-18T07:24:33.094Z,28.17
2023-06-18T07:25:33.021Z,28.19
2023-06-18T07:26:33.050Z,28.19
2023-06-18T07:27:33.039Z,28.17
2023-06-18T07:28:33.025Z,28.17
2023-06-18T07:29:33.008Z,28.20
2023-06-18T07:30:33.026Z,28.19
2023-06-18T07:31:32.995Z,28.20
2023-06-18T07:32:33.028Z,28.21
2023-06-18T07:33:32.987Z,28.20
2023-06-18T07:34:32.977Z,28.20
2023-06-18T07:35:32.978Z,28.23
2023-06-18T07:36:33.003Z,28.20
2023-06-18T07:37:33.030Z,28.21
2023-06-18T07:38:32.948Z,28.21
2023-06-18T07:39:32.952Z,28.20
2023-06-18T07:40:32.977Z,28.20
2023-06-18T07:41:32.937Z,28.20
2023-06-18T07:42:32.935Z,28.20
2023-06-18T07:43:32.916Z,28.19
2023-06-18T07:44:33.714Z,28.19
2023-06-18T07:45:32.912Z,28.20
2023-06-18T07:46:33.029Z,28.19
2023-06-18T07:47:32.931Z,28.21
2023-06-18T07:48:32.882Z,28.20
2023-06-18T07:49:32.877Z,28.20
2023-06-18T07:50:32.861Z,28.19
2023-06-18T07:51:32.872Z,28.20
2023-06-18T07:52:32.881Z,28.19
2023-06-18T07:53:32.865Z,28.23
2023-06-18T07:54:32.856Z,28.21
2023-06-18T07:55:32.898Z,28.21
2023-06-18T07:56:32.905Z,28.21
2023-06-18T07:57:32.808Z,28.20
2023-06-18T07:58:32.839Z,28.20
2023-06-18T07:59:32.828Z,28.21
2023-06-18T08:00:32.852Z,28.19
2023-06-18T08:01:32.838Z,28.20
2023-06-18T08:02:32.901Z,28.20
2023-06-18T08:03:32.858Z,28.20
2023-06-18T08:04:32.921Z,28.21
2023-06-18T08:05:32.873Z,28.20
2023-06-18T08:06:32.918Z,28.21
2023-06-18T08:07:32.952Z,28.20
2023-06-18T08:08:32.943Z,28.21
2023-06-18T08:09:32.924Z,28.19
2023-06-18T08:10:33.054Z,28.23
2023-06-18T08:11:32.999Z,28.20
2023-06-18T08:12:33.001Z,28.21
2023-06-18T08:13:32.981Z,28.20
2023-06-18T08:14:33.010Z,28.23
2023-06-18T08:15:33.083Z,28.21
2023-06-18T08:16:33.088Z,28.21
2023-06-18T08:17:33.070Z,28.21
2023-06-18T08:18:33.172Z,28.23
2023-06-18T08:19:33.678Z,28.21
2023-06-18T08:20:33.111Z,28.21
2023-06-18T08:21:33.118Z,28.21
2023-06-18T08:22:33.116Z,28.21
2023-06-18T08:23:33.143Z,28.23
2023-06-18T08:24:33.204Z,28.21
2023-06-18T08:25:33.167Z,28.23
2023-06-18T08:26:33.194Z,28.23
2023-06-18T08:27:33.244Z,28.23
2023-06-18T08:28:33.258Z,28.23
2023-06-18T08:29:33.233Z,28.20
2023-06-18T08:30:33.293Z,28.23
2023-06-18T08:31:33.291Z,28.23
2023-06-18T08:32:33.319Z,28.21
2023-06-18T08:33:33.350Z,28.21
2023-06-18T08:34:33.363Z,28.21
2023-06-18T08:35:33.387Z,28.21
2023-06-18T08:36:33.390Z,28.24
2023-06-18T08:37:33.466Z,28.23
2023-06-18T08:38:33.411Z,28.23
2023-06-18T08:39:33.396Z,28.23
2023-06-18T08:40:33.453Z,28.20
2023-06-18T08:41:33.462Z,28.21
2023-06-18T08:42:33.478Z,28.23
2023-06-18T08:43:33.491Z,28.21
2023-06-18T08:44:33.479Z,28.20
2023-06-18T08:45:33.566Z,28.20
2023-06-18T08:46:33.548Z,28.19
2023-06-18T08:47:33.597Z,28.21
2023-06-18T08:48:35.469Z,28.21
2023-06-18T08:49:33.564Z,28.23
2023-06-18T08:50:33.588Z,28.19
2023-06-18T08:51:33.576Z,28.23
2023-06-18T08:52:33.642Z,28.20
2023-06-18T08:53:33.631Z,28.20
2023-06-18T08:54:33.658Z,28.19
2023-06-18T08:55:33.645Z,28.21
2023-06-18T08:56:33.671Z,28.20
2023-06-18T08:57:33.741Z,28.21
2023-06-18T08:58:33.717Z,28.20
2023-06-18T08:59:33.802Z,28.20
2023-06-18T09:00:33.741Z,28.21
2023-06-18T09:01:33.773Z,28.21
2023-06-18T09:02:33.872Z,28.23
2023-06-18T09:03:33.860Z,28.20
2023-06-18T09:04:33.841Z,28.21
2023-06-18T09:05:33.842Z,28.20
2023-06-18T09:06:33.859Z,28.20
2023-06-18T09:07:33.858Z,28.21
2023-06-18T09:08:33.855Z,28.20
2023-06-18T09:09:33.943Z,28.23
2023-06-18T09:10:33.903Z,28.20
2023-06-18T09:11:37.190Z,28.21
2023-06-18T09:12:33.930Z,28.20
2023-06-18T09:13:33.996Z,28.20
2023-06-18T09:14:33.901Z,28.23
2023-06-18T09:15:33.920Z,28.19
2023-06-18T09:16:33.996Z,28.20
2023-06-18T09:17:33.948Z,28.20
2023-06-18T09:18:33.896Z,28.20
2023-06-18T09:19:33.860Z,28.23
2023-06-18T09:20:33.860Z,28.19
2023-06-18T09:21:33.857Z,28.20
2023-06-18T09:22:33.851Z,28.20
2023-06-18T09:23:33.832Z,28.20
2023-06-18T09:24:33.861Z,28.20
2023-06-18T09:25:33.881Z,28.20
2023-06-18T09:26:33.818Z,28.21
2023-06-18T09:27:33.906Z,28.20
2023-06-18T09:28:33.837Z,28.21
2023-06-18T09:29:33.824Z,28.20
2023-06-18T09:30:33.830Z,28.21
2023-06-18T09:31:33.792Z,28.20
2023-06-18T09:32:36.074Z,28.19
2023-06-18T09:33:33.784Z,28.20
2023-06-18T09:34:33.841Z,28.20
2023-06-18T09:35:33.855Z,28.20
2023-06-18T09:36:33.856Z,28.20
2023-06-18T09:37:33.866Z,28.21
2023-06-18T09:38:33.905Z,28.20
2023-06-18T09:39:33.914Z,28.20
2023-06-18T09:40:33.924Z,28.17
2023-06-18T09:41:33.931Z,28.21
2023-06-18T09:42:33.953Z,28.17
2023-06-18T09:43:33.966Z,28.19
2023-06-18T09:44:34.225Z,28.20
2023-06-18T09:45:33.974Z,28.20
2023-06-18T09:46:34.074Z,28.20
2023-06-18T09:47:34.102Z,28.17
2023-06-18T09:48:34.048Z,28.19
2023-06-18T09:49:34.056Z,28.20
2023-06-18T09:50:34.084Z,28.19
2023-06-18T09:51:34.095Z,28.20
2023-06-18T09:52:34.124Z,28.16
2023-06-18T09:53:34.104Z,28.17
2023-06-18T09:54:34.123Z,28.19
2023-06-18T09:55:34.150Z,28.17
2023-06-18T09:56:34.119Z,28.19
2023-06-18T09:57:34.128Z,28.21
2023-06-18T09:58:34.173Z,28.17
2023-06-18T09:59:34.207Z,28.19
2023-06-18T10:00:34.264Z,28.19
2023-06-18T10:01:34.266Z,28.19
2023-06-18T10:02:34.282Z,28.21
2023-06-18T10:03:34.307Z,28.17
2023-06-18T10:04:34.252Z,28.19
2023-06-18T10:05:34.310Z,28.19
2023-06-18T10:06:34.307Z,28.16
2023-06-18T10:07:34.408Z,28.17
2023-06-18T10:08:34.326Z,28.17
2023-06-18T10:09:34.354Z,28.17
2023-06-18T10:10:34.347Z,28.17
2023-06-18T10:11:34.351Z,28.19
2023-06-18T10:12:34.395Z,28.17
2023-06-18T10:13:34.439Z,28.17
2023-06-18T10:14:34.448Z,28.17
2023-06-18T10:15:34.458Z,28.17
2023-06-18T10:16:34.568Z,28.17
2023-06-18T10:17:34.544Z,28.17
2023-06-18T10:18:34.485Z,28.16
2023-06-18T10:19:34.539Z,28.16
2023-06-18T10:20:34.560Z,28.17
2023-06-18T10:21:34.558Z,28.17
2023-06-18T10:22:34.577Z,28.16
2023-06-18T10:23:34.561Z,28.14
2023-06-18T10:24:34.736Z,28.17
2023-06-18T10:25:34.612Z,28.17
2023-06-18T10:26:34.619Z,28.16
2023-06-18T10:27:34.668Z,28.16
2023-06-18T10:28:34.653Z,28.17
2023-06-18T10:29:34.672Z,28.19
2023-06-18T10:30:34.752Z,28.14
2023-06-18T10:31:34.745Z,28.19
2023-06-18T10:32:34.760Z,28.17
2023-06-18T10:33:34.746Z,28.16
2023-06-18T10:34:34.783Z,28.17
2023-06-18T10:35:34.784Z,28.17
2023-06-18T10:36:34.826Z,28.17
2023-06-18T10:37:34.840Z,28.17
2023-06-18T10:38:34.861Z,28.16
2023-06-18T10:39:34.852Z,28.16
2023-06-18T10:40:34.883Z,28.17
2023-06-18T10:41:34.906Z,28.19
2023-06-18T10:42:34.923Z,28.13
2023-06-18T10:43:34.947Z,28.17
2023-06-18T10:44:34.953Z,28.16
2023-06-18T10:45:35.000Z,28.17
2023-06-18T10:46:34.991Z,28.17
2023-06-18T10:47:35.037Z,28.17
2023-06-18T10:48:35.024Z,28.16
2023-06-18T10:49:35.030Z,28.16
2023-06-18T10:50:35.029Z,28.17
2023-06-18T10:51:35.044Z,28.19
2023-06-18T10:52:35.112Z,28.16
2023-06-18T10:53:35.078Z,28.17
2023-06-18T10:54:35.173Z,28.14
2023-06-18T10:55:35.105Z,28.17
2023-06-18T10:56:35.138Z,28.16
2023-06-18T10:57:35.158Z,28.17
2023-06-18T10:58:35.157Z,28.16
2023-06-18T10:59:35.203Z,28.19
2023-06-18T11:00:35.189Z,28.16
2023-06-18T11:01:35.232Z,28.17
2023-06-18T11:02:35.279Z,28.21
2023-06-18T11:03:35.277Z,28.14
2023-06-18T11:04:35.257Z,28.19
2023-06-18T11:05:35.301Z,28.19
2023-06-18T11:06:35.308Z,28.17
2023-06-18T11:07:35.283Z,28.19
2023-06-18T11:08:35.284Z,28.19
2023-06-18T11:09:35.292Z,28.17
2023-06-18T11:10:35.312Z,28.16
2023-06-18T11:11:35.350Z,28.19
2023-06-18T11:12:35.361Z,28.19
2023-06-18T11:13:36.070Z,28.19
2023-06-18T11:14:35.364Z,28.19
2023-06-18T11:15:35.385Z,28.17
2023-06-18T11:16:35.438Z,28.17
2023-06-18T11:17:35.448Z,28.17
2023-06-18T11:18:35.407Z,28.17
2023-06-18T11:19:35.512Z,28.19
2023-06-18T11:20:35.480Z,28.19
2023-06-18T11:21:35.456Z,28.17
2023-06-18T11:22:35.471Z,28.20
2023-06-18T11:23:35.475Z,28.16
2023-06-18T11:24:35.574Z,28.19
2023-06-18T11:25:35.495Z,28.20
2023-06-18T11:26:35.510Z,28.19
2023-06-18T11:27:35.521Z,28.19
2023-06-18T11:28:35.525Z,28.21
2023-06-18T11:29:35.534Z,28.21
2023-06-18T11:30:35.625Z,28.20
2023-06-18T11:31:35.549Z,28.19
2023-06-18T11:32:35.659Z,28.19
2023-06-18T11:33:35.611Z,28.19
2023-06-18T11:34:35.587Z,28.20
2023-06-18T11:35:35.616Z,28.20
2023-06-18T11:36:35.605Z,28.19
2023-06-18T11:37:35.659Z,28.17
2023-06-18T11:38:35.665Z,28.19
2023-06-18T11:39:35.659Z,28.19
2023-06-18T11:40:35.659Z,28.21
2023-06-18T11:41:35.701Z,28.19
2023-06-18T11:42:35.729Z,28.20
2023-06-18T11:43:35.748Z,28.23
2023-06-18T11:44:35.727Z,28.20
2023-06-18T11:45:35.760Z,28.19
2023-06-18T11:46:35.782Z,28.21
2023-06-18T11:47:35.799Z,28.21
2023-06-18T11:48:35.778Z,28.20
2023-06-18T11:49:35.787Z,28.21
2023-06-18T11:50:35.815Z,28.21
2023-06-18T11:51:35.772Z,28.20
2023-06-18T11:52:35.811Z,28.23
2023-06-18T11:53:35.825Z,28.23
2023-06-18T11:54:35.848Z,28.21
2023-06-18T11:55:35.826Z,28.20
2023-06-18T11:56:35.879Z,28.21
2023-06-18T11:57:35.838Z,28.21
2023-06-18T11:58:35.873Z,28.23
2023-06-18T11:59:35.905Z,28.23
2023-06-18T12:00:35.869Z,28.21
2023-06-18T12:01:35.921Z,28.19
2023-06-18T12:02:35.938Z,28.23
2023-06-18T12:03:35.994Z,28.21
2023-06-18T12:04:36.386Z,28.23
2023-06-18T12:05:35.961Z,28.23
2023-06-18T12:06:35.929Z,28.23
2023-06-18T12:07:35.932Z,28.23
2023-06-18T12:08:35.964Z,28.24
2023-06-18T12:09:35.976Z,28.26
2023-06-18T12:10:36.057Z,28.23
2023-06-18T12:11:35.981Z,28.24
2023-06-18T12:12:35.962Z,28.26
2023-06-18T12:13:36.021Z,28.24
2023-06-18T12:14:35.999Z,28.27
2023-06-18T12:15:35.989Z,28.24
2023-06-18T12:16:36.042Z,28.26
2023-06-18T12:17:36.044Z,28.27
2023-06-18T12:18:36.025Z,28.28
2023-06-18T12:19:36.050Z,28.26
2023-06-18T12:20:36.064Z,28.27
2023-06-18T12:21:36.057Z,28.28
2023-06-18T12:22:36.067Z,28.28
2023-06-18T12:23:36.068Z,28.28
2023-06-18T12:24:36.198Z,28.30
2023-06-18T12:25:36.057Z,28.28
2023-06-18T12:26:36.087Z,28.28
2023-06-18T12:27:36.067Z,28.31
2023-06-18T12:28:36.104Z,28.31
2023-06-18T12:29:36.112Z,28.30
2023-06-18T12:30:36.096Z,28.30
2023-06-18T12:31:36.094Z,28.30
2023-06-18T12:32:36.145Z,28.33
2023-06-18T12:33:38.496Z,28.34
2023-06-18T12:34:36.143Z,28.31
2023-06-18T12:35:36.157Z,28.34
2023-06-18T12:36:36.170Z,28.36
2023-06-18T12:37:36.146Z,28.34
2023-06-18T12:38:36.182Z,28.34
2023-06-18T12:39:38.531Z,28.34
2023-06-18T12:40:36.141Z,28.33
2023-06-18T12:41:36.126Z,28.36
2023-06-18T12:42:36.134Z,28.34
2023-06-18T12:43:36.102Z,28.40
2023-06-18T12:44:36.140Z,28.38
2023-06-18T12:45:36.127Z,28.38
2023-06-18T12:46:36.123Z,28.38
2023-06-18T12:47:36.137Z,28.40
2023-06-18T12:48:36.066Z,28.38
2023-06-18T12:49:36.069Z,28.40
2023-06-18T12:50:36.083Z,28.40
2023-06-18T12:51:37.243Z,28.40
2023-06-18T12:52:36.071Z,28.40
2023-06-18T12:53:36.046Z,28.40